sensor_id;sensor_type;location;lat;lon;timestamp;P1;durP1;ratioP1;P2;durP2;ratioP2
49101;SDS011;34913;47.520;19.186;2023-06-24T00:00:56;6.68;;;5.95;;
49101;SDS011;34913;47.520;19.186;2023-06-24T00:03:22;6.07;;;5.47;;
49101;SDS011;34913;47.520;19.186;2023-06-24T00:05:47;6.45;;;5.85;;
49101;SDS011;34913;47.520;19.186;2023-06-24T00:08:18;9.57;;;5.65;;
49101;SDS011;34913;47.520;19.186;2023-06-24T00:10:47;6.68;;;5.50;;
49101;SDS011;34913;47.520;19.186;2023-06-24T00:13:13;6.53;;;5.70;;
49101;SDS011;34913;47.520;19.186;2023-06-24T00:15:39;6.55;;;5.53;;
49101;SDS011;34913;47.520;19.186;2023-06-24T00:18:10;5.82;;;5.22;;
49101;SDS011;34913;47.520;19.186;2023-06-24T00:20:36;7.03;;;6.00;;
49101;SDS011;34913;47.520;19.186;2023-06-24T00:23:02;6.88;;;5.78;;
49101;SDS011;34913;47.520;19.186;2023-06-24T00:25:28;6.95;;;6.03;;
49101;SDS011;34913;47.520;19.186;2023-06-24T00:27:54;7.07;;;6.07;;
49101;SDS011;34913;47.520;19.186;2023-06-24T00:30:19;6.25;;;5.63;;
49101;SDS011;34913;47.520;19.186;2023-06-24T00:32:45;11.70;;;5.93;;
49101;SDS011;34913;47.520;19.186;2023-06-24T00:35:10;7.00;;;6.30;;
49101;SDS011;34913;47.520;19.186;2023-06-24T00:37:37;7.50;;;6.75;;
49101;SDS011;34913;47.520;19.186;2023-06-24T00:40:04;9.60;;;6.43;;
49101;SDS011;34913;47.520;19.186;2023-06-24T00:42:30;7.28;;;6.22;;
49101;SDS011;34913;47.520;19.186;2023-06-24T00:44:56;7.63;;;6.45;;
49101;SDS011;34913;47.520;19.186;2023-06-24T00:47:22;6.78;;;5.93;;
49101;SDS011;34913;47.520;19.186;2023-06-24T00:49:48;6.82;;;5.78;;
49101;SDS011;34913;47.520;19.186;2023-06-24T00:52:14;6.50;;;5.22;;
49101;SDS011;34913;47.520;19.186;2023-06-24T00:54:40;6.65;;;5.80;;
49101;SDS011;34913;47.520;19.186;2023-06-24T00:57:07;6.75;;;5.50;;
49101;SDS011;34913;47.520;19.186;2023-06-24T00:59:32;6.97;;;5.35;;
49101;SDS011;34913;47.520;19.186;2023-06-24T01:01:59;6.65;;;5.65;;
49101;SDS011;34913;47.520;19.186;2023-06-24T01:04:29;6.13;;;5.53;;
49101;SDS011;34913;47.520;19.186;2023-06-24T01:06:55;9.35;;;5.28;;
49101;SDS011;34913;47.520;19.186;2023-06-24T01:09:22;6.05;;;5.43;;
49101;SDS011;34913;47.520;19.186;2023-06-24T01:11:48;7.20;;;5.13;;
49101;SDS011;34913;47.520;19.186;2023-06-24T01:14:13;5.97;;;5.22;;
49101;SDS011;34913;47.520;19.186;2023-06-24T01:16:43;6.57;;;5.30;;
49101;SDS011;34913;47.520;19.186;2023-06-24T01:32:52;6.15;;;4.57;;
49101;SDS011;34913;47.520;19.186;2023-06-24T01:35:23;5.05;;;4.18;;
49101;SDS011;34913;47.520;19.186;2023-06-24T01:37:53;6.05;;;4.43;;
49101;SDS011;34913;47.520;19.186;2023-06-24T01:40:44;5.32;;;4.20;;
49101;SDS011;34913;47.520;19.186;2023-06-24T01:43:11;7.03;;;4.45;;
49101;SDS011;34913;47.520;19.186;2023-06-24T01:45:40;7.22;;;4.60;;
49101;SDS011;34913;47.520;19.186;2023-06-24T01:48:09;6.60;;;4.75;;
49101;SDS011;34913;47.520;19.186;2023-06-24T01:53:07;4.30;;;3.85;;
49101;SDS011;34913;47.520;19.186;2023-06-24T01:55:33;5.28;;;4.50;;
49101;SDS011;34913;47.520;19.186;2023-06-24T01:58:02;7.75;;;4.60;;
49101;SDS011;34913;47.520;19.186;2023-06-24T02:00:29;6.28;;;5.05;;
49101;SDS011;34913;47.520;19.186;2023-06-24T02:02:57;6.63;;;4.55;;
49101;SDS011;34913;47.520;19.186;2023-06-24T02:05:24;6.03;;;4.63;;
49101;SDS011;34913;47.520;19.186;2023-06-24T02:07:51;5.28;;;4.78;;
49101;SDS011;34913;47.520;19.186;2023-06-24T02:10:18;5.22;;;4.72;;
49101;SDS011;34913;47.520;19.186;2023-06-24T02:12:45;5.03;;;4.53;;
49101;SDS011;34913;47.520;19.186;2023-06-24T02:15:13;6.65;;;4.72;;
49101;SDS011;34913;47.520;19.186;2023-06-24T02:17:40;5.00;;;4.50;;
49101;SDS011;34913;47.520;19.186;2023-06-24T02:20:06;5.43;;;4.63;;
49101;SDS011;34913;47.520;19.186;2023-06-24T02:22:35;6.68;;;5.10;;
49101;SDS011;34913;47.520;19.186;2023-06-24T02:25:04;9.70;;;5.93;;
49101;SDS011;34913;47.520;19.186;2023-06-24T02:27:31;5.55;;;5.05;;
49101;SDS011;34913;47.520;19.186;2023-06-24T02:29:57;6.13;;;5.00;;
49101;SDS011;34913;47.520;19.186;2023-06-24T02:32:24;6.90;;;5.15;;
49101;SDS011;34913;47.520;19.186;2023-06-24T02:34:50;7.53;;;5.10;;
49101;SDS011;34913;47.520;19.186;2023-06-24T02:37:15;5.63;;;5.10;;
49101;SDS011;34913;47.520;19.186;2023-06-24T02:39:41;5.47;;;4.82;;
49101;SDS011;34913;47.520;19.186;2023-06-24T02:42:10;5.80;;;4.57;;
49101;SDS011;34913;47.520;19.186;2023-06-24T02:44:36;6.68;;;5.10;;
49101;SDS011;34913;47.520;19.186;2023-06-24T02:47:04;9.73;;;5.05;;
49101;SDS011;34913;47.520;19.186;2023-06-24T02:49:31;5.85;;;5.05;;
49101;SDS011;34913;47.520;19.186;2023-06-24T02:51:57;6.53;;;5.00;;
49101;SDS011;34913;47.520;19.186;2023-06-24T02:54:22;6.70;;;5.28;;
49101;SDS011;34913;47.520;19.186;2023-06-24T02:56:48;5.90;;;5.15;;
49101;SDS011;34913;47.520;19.186;2023-06-24T02:59:14;5.78;;;5.18;;
49101;SDS011;34913;47.520;19.186;2023-06-24T03:01:39;5.15;;;4.63;;
49101;SDS011;34913;47.520;19.186;2023-06-24T03:04:10;4.85;;;4.10;;
49101;SDS011;34913;47.520;19.186;2023-06-24T03:06:35;4.30;;;3.90;;
49101;SDS011;34913;47.520;19.186;2023-06-24T03:09:01;4.10;;;3.70;;
49101;SDS011;34913;47.520;19.186;2023-06-24T03:11:28;3.63;;;3.30;;
49101;SDS011;34913;47.520;19.186;2023-06-24T03:13:54;3.63;;;3.28;;
49101;SDS011;34913;47.520;19.186;2023-06-24T03:16:19;4.05;;;3.30;;
49101;SDS011;34913;47.520;19.186;2023-06-24T03:18:45;3.45;;;3.15;;
49101;SDS011;34913;47.520;19.186;2023-06-24T03:21:10;4.88;;;2.85;;
49101;SDS011;34913;47.520;19.186;2023-06-24T03:23:36;4.05;;;3.30;;
49101;SDS011;34913;47.520;19.186;2023-06-24T03:26:01;3.72;;;3.17;;
49101;SDS011;34913;47.520;19.186;2023-06-24T03:28:29;4.20;;;3.40;;
49101;SDS011;34913;47.520;19.186;2023-06-24T03:30:55;5.90;;;3.20;;
49101;SDS011;34913;47.520;19.186;2023-06-24T03:33:21;7.32;;;3.40;;
49101;SDS011;34913;47.520;19.186;2023-06-24T03:35:47;4.38;;;3.30;;
49101;SDS011;34913;47.520;19.186;2023-06-24T03:38:16;3.60;;;3.30;;
49101;SDS011;34913;47.520;19.186;2023-06-24T03:40:41;6.13;;;3.25;;
49101;SDS011;34913;47.520;19.186;2023-06-24T03:43:07;4.40;;;3.20;;
49101;SDS011;34913;47.520;19.186;2023-06-24T03:45:32;4.38;;;2.75;;
49101;SDS011;34913;47.520;19.186;2023-06-24T03:47:57;4.18;;;2.97;;
49101;SDS011;34913;47.520;19.186;2023-06-24T03:50:23;4.00;;;3.17;;
49101;SDS011;34913;47.520;19.186;2023-06-24T03:52:48;3.53;;;2.60;;
49101;SDS011;34913;47.520;19.186;2023-06-24T03:55:14;5.13;;;2.78;;
49101;SDS011;34913;47.520;19.186;2023-06-24T03:57:39;6.15;;;2.80;;
49101;SDS011;34913;47.520;19.186;2023-06-24T04:00:04;3.42;;;2.55;;
49101;SDS011;34913;47.520;19.186;2023-06-24T04:05:25;6.45;;;2.50;;
49101;SDS011;34913;47.520;19.186;2023-06-24T04:07:51;2.63;;;2.10;;
49101;SDS011;34913;47.520;19.186;2023-06-24T04:10:17;4.97;;;2.70;;
49101;SDS011;34913;47.520;19.186;2023-06-24T04:12:43;4.22;;;2.78;;
49101;SDS011;34913;47.520;19.186;2023-06-24T04:15:09;2.85;;;2.30;;
49101;SDS011;34913;47.520;19.186;2023-06-24T04:17:35;2.97;;;2.10;;
49101;SDS011;34913;47.520;19.186;2023-06-24T04:20:00;2.65;;;2.30;;
49101;SDS011;34913;47.520;19.186;2023-06-24T04:22:29;2.20;;;2.00;;
49101;SDS011;34913;47.520;19.186;2023-06-24T04:24:54;2.65;;;2.10;;
49101;SDS011;34913;47.520;19.186;2023-06-24T04:27:20;3.05;;;2.13;;
49101;SDS011;34913;47.520;19.186;2023-06-24T04:29:45;4.55;;;2.50;;
49101;SDS011;34913;47.520;19.186;2023-06-24T04:32:10;2.85;;;2.13;;
49101;SDS011;34913;47.520;19.186;2023-06-24T04:34:36;2.55;;;2.35;;
49101;SDS011;34913;47.520;19.186;2023-06-24T04:37:01;3.13;;;2.20;;
49101;SDS011;34913;47.520;19.186;2023-06-24T04:39:27;2.70;;;2.40;;
49101;SDS011;34913;47.520;19.186;2023-06-24T04:41:52;5.60;;;2.45;;
49101;SDS011;34913;47.520;19.186;2023-06-24T04:44:17;2.25;;;1.92;;
49101;SDS011;34913;47.520;19.186;2023-06-24T04:46:45;4.45;;;2.35;;
49101;SDS011;34913;47.520;19.186;2023-06-24T04:49:10;4.93;;;2.20;;
49101;SDS011;34913;47.520;19.186;2023-06-24T04:51:36;6.75;;;1.90;;
49101;SDS011;34913;47.520;19.186;2023-06-24T04:54:02;1.67;;;1.58;;
49101;SDS011;34913;47.520;19.186;2023-06-24T04:56:28;3.50;;;1.73;;
49101;SDS011;34913;47.520;19.186;2023-06-24T04:58:53;2.75;;;1.80;;
49101;SDS011;34913;47.520;19.186;2023-06-24T05:01:19;4.45;;;1.60;;
49101;SDS011;34913;47.520;19.186;2023-06-24T05:03:44;1.77;;;1.50;;
49101;SDS011;34913;47.520;19.186;2023-06-24T05:06:10;3.17;;;1.50;;
49101;SDS011;34913;47.520;19.186;2023-06-24T05:08:35;3.40;;;1.50;;
49101;SDS011;34913;47.520;19.186;2023-06-24T05:11:00;1.58;;;1.48;;
49101;SDS011;34913;47.520;19.186;2023-06-24T05:13:27;2.55;;;1.50;;
49101;SDS011;34913;47.520;19.186;2023-06-24T05:15:53;5.13;;;1.70;;
49101;SDS011;34913;47.520;19.186;2023-06-24T05:18:18;5.78;;;1.60;;
49101;SDS011;34913;47.520;19.186;2023-06-24T05:20:43;3.42;;;1.33;;
49101;SDS011;34913;47.520;19.186;2023-06-24T05:23:09;1.60;;;1.27;;
49101;SDS011;34913;47.520;19.186;2023-06-24T05:25:34;2.55;;;1.40;;
49101;SDS011;34913;47.520;19.186;2023-06-24T05:28:00;3.55;;;1.50;;
49101;SDS011;34913;47.520;19.186;2023-06-24T05:30:25;3.80;;;1.35;;
49101;SDS011;34913;47.520;19.186;2023-06-24T05:32:51;2.80;;;1.25;;
49101;SDS011;34913;47.520;19.186;2023-06-24T05:35:16;2.60;;;1.23;;
49101;SDS011;34913;47.520;19.186;2023-06-24T05:37:42;1.88;;;1.10;;
49101;SDS011;34913;47.520;19.186;2023-06-24T05:40:07;4.47;;;1.50;;
49101;SDS011;34913;47.520;19.186;2023-06-24T05:42:34;2.40;;;1.17;;
49101;SDS011;34913;47.520;19.186;2023-06-24T05:44:59;2.05;;;1.27;;
49101;SDS011;34913;47.520;19.186;2023-06-24T05:47:25;2.45;;;1.40;;
49101;SDS011;34913;47.520;19.186;2023-06-24T05:49:50;1.42;;;1.30;;
49101;SDS011;34913;47.520;19.186;2023-06-24T05:52:16;1.85;;;1.02;;
49101;SDS011;34913;47.520;19.186;2023-06-24T05:54:41;1.77;;;1.10;;
49101;SDS011;34913;47.520;19.186;2023-06-24T05:57:07;1.98;;;1.40;;
49101;SDS011;34913;47.520;19.186;2023-06-24T05:59:35;1.63;;;1.10;;
49101;SDS011;34913;47.520;19.186;2023-06-24T06:02:01;1.63;;;1.20;;
49101;SDS011;34913;47.520;19.186;2023-06-24T06:04:27;2.25;;;1.10;;
49101;SDS011;34913;47.520;19.186;2023-06-24T06:06:52;2.65;;;0.90;;
49101;SDS011;34913;47.520;19.186;2023-06-24T06:09:18;1.38;;;1.05;;
49101;SDS011;34913;47.520;19.186;2023-06-24T06:11:43;1.45;;;1.05;;
49101;SDS011;34913;47.520;19.186;2023-06-24T06:14:09;1.88;;;1.08;;
49101;SDS011;34913;47.520;19.186;2023-06-24T06:16:34;3.35;;;1.17;;
49101;SDS011;34913;47.520;19.186;2023-06-24T06:19:00;2.00;;;1.00;;
49101;SDS011;34913;47.520;19.186;2023-06-24T06:21:25;7.75;;;1.50;;
49101;SDS011;34913;47.520;19.186;2023-06-24T06:23:50;1.83;;;1.17;;
49101;SDS011;34913;47.520;19.186;2023-06-24T06:26:16;1.77;;;0.93;;
49101;SDS011;34913;47.520;19.186;2023-06-24T06:28:41;2.40;;;1.20;;
49101;SDS011;34913;47.520;19.186;2023-06-24T06:31:07;2.80;;;1.05;;
49101;SDS011;34913;47.520;19.186;2023-06-24T06:33:32;3.25;;;1.00;;
49101;SDS011;34913;47.520;19.186;2023-06-24T06:35:58;1.35;;;1.00;;
49101;SDS011;34913;47.520;19.186;2023-06-24T06:38:24;2.17;;;0.80;;
49101;SDS011;34913;47.520;19.186;2023-06-24T06:40:49;4.53;;;1.15;;
49101;SDS011;34913;47.520;19.186;2023-06-24T06:43:15;0.98;;;0.88;;
49101;SDS011;34913;47.520;19.186;2023-06-24T06:45:40;3.55;;;0.95;;
49101;SDS011;34913;47.520;19.186;2023-06-24T06:48:05;1.98;;;0.80;;
49101;SDS011;34913;47.520;19.186;2023-06-24T06:50:34;3.63;;;1.02;;
49101;SDS011;34913;47.520;19.186;2023-06-24T06:53:00;5.07;;;1.05;;
49101;SDS011;34913;47.520;19.186;2023-06-24T06:55:26;1.50;;;1.00;;
49101;SDS011;34913;47.520;19.186;2023-06-24T06:57:52;3.13;;;0.90;;
49101;SDS011;34913;47.520;19.186;2023-06-24T07:00:18;2.50;;;0.90;;
49101;SDS011;34913;47.520;19.186;2023-06-24T07:02:43;1.10;;;1.00;;
49101;SDS011;34913;47.520;19.186;2023-06-24T07:05:08;2.33;;;0.88;;
49101;SDS011;34913;47.520;19.186;2023-06-24T07:07:36;2.15;;;0.90;;
49101;SDS011;34913;47.520;19.186;2023-06-24T07:10:02;2.65;;;1.20;;
49101;SDS011;34913;47.520;19.186;2023-06-24T07:12:28;1.67;;;1.00;;
49101;SDS011;34913;47.520;19.186;2023-06-24T07:14:53;6.10;;;1.10;;
49101;SDS011;34913;47.520;19.186;2023-06-24T07:17:18;1.42;;;0.90;;
49101;SDS011;34913;47.520;19.186;2023-06-24T07:19:44;2.05;;;1.10;;
49101;SDS011;34913;47.520;19.186;2023-06-24T07:22:09;3.00;;;0.90;;
49101;SDS011;34913;47.520;19.186;2023-06-24T07:24:34;1.83;;;1.05;;
49101;SDS011;34913;47.520;19.186;2023-06-24T07:27:00;2.42;;;1.10;;
49101;SDS011;34913;47.520;19.186;2023-06-24T07:29:25;6.40;;;1.33;;
49101;SDS011;34913;47.520;19.186;2023-06-24T07:31:51;3.13;;;1.13;;
49101;SDS011;34913;47.520;19.186;2023-06-24T07:34:16;2.15;;;1.10;;
49101;SDS011;34913;47.520;19.186;2023-06-24T07:36:41;1.50;;;1.10;;
49101;SDS011;34913;47.520;19.186;2023-06-24T07:39:07;3.72;;;1.20;;
49101;SDS011;34913;47.520;19.186;2023-06-24T07:41:32;1.52;;;0.90;;
49101;SDS011;34913;47.520;19.186;2023-06-24T07:43:58;2.80;;;1.13;;
49101;SDS011;34913;47.520;19.186;2023-06-24T07:46:23;1.83;;;1.20;;
49101;SDS011;34913;47.520;19.186;2023-06-24T07:48:52;2.35;;;1.27;;
49101;SDS011;34913;47.520;19.186;2023-06-24T07:51:17;3.85;;;1.30;;
49101;SDS011;34913;47.520;19.186;2023-06-24T07:53:43;1.63;;;1.15;;
49101;SDS011;34913;47.520;19.186;2023-06-24T07:56:08;2.10;;;1.20;;
49101;SDS011;34913;47.520;19.186;2023-06-24T07:58:34;1.25;;;1.15;;
49101;SDS011;34913;47.520;19.186;2023-06-24T08:01:00;2.83;;;1.10;;
49101;SDS011;34913;47.520;19.186;2023-06-24T08:03:25;1.35;;;1.10;;
49101;SDS011;34913;47.520;19.186;2023-06-24T08:05:51;2.75;;;1.13;;
49101;SDS011;34913;47.520;19.186;2023-06-24T08:08:16;2.78;;;1.10;;
49101;SDS011;34913;47.520;19.186;2023-06-24T08:10:44;1.75;;;1.17;;
49101;SDS011;34913;47.520;19.186;2023-06-24T08:13:10;2.72;;;1.40;;
49101;SDS011;34913;47.520;19.186;2023-06-24T08:15:35;1.33;;;1.10;;
49101;SDS011;34913;47.520;19.186;2023-06-24T08:18:01;2.65;;;1.17;;
49101;SDS011;34913;47.520;19.186;2023-06-24T08:20:26;2.15;;;1.00;;
49101;SDS011;34913;47.520;19.186;2023-06-24T08:22:51;1.98;;;1.00;;
49101;SDS011;34913;47.520;19.186;2023-06-24T08:25:17;1.17;;;1.02;;
49101;SDS011;34913;47.520;19.186;2023-06-24T08:27:42;2.25;;;1.20;;
49101;SDS011;34913;47.520;19.186;2023-06-24T08:30:11;1.52;;;1.20;;
49101;SDS011;34913;47.520;19.186;2023-06-24T08:32:37;1.30;;;1.13;;
49101;SDS011;34913;47.520;19.186;2023-06-24T08:35:03;1.20;;;1.10;;
49101;SDS011;34913;47.520;19.186;2023-06-24T08:37:29;1.20;;;1.10;;
49101;SDS011;34913;47.520;19.186;2023-06-24T08:39:55;1.23;;;1.10;;
49101;SDS011;34913;47.520;19.186;2023-06-24T08:42:20;3.15;;;1.00;;
49101;SDS011;34913;47.520;19.186;2023-06-24T08:44:45;1.63;;;1.30;;
49101;SDS011;34913;47.520;19.186;2023-06-24T08:47:11;1.25;;;1.15;;
49101;SDS011;34913;47.520;19.186;2023-06-24T08:49:44;2.60;;;1.10;;
49101;SDS011;34913;47.520;19.186;2023-06-24T08:52:14;1.38;;;1.20;;
49101;SDS011;34913;47.520;19.186;2023-06-24T08:54:41;1.90;;;1.30;;
49101;SDS011;34913;47.520;19.186;2023-06-24T08:57:11;1.60;;;1.30;;
49101;SDS011;34913;47.520;19.186;2023-06-24T08:59:39;1.30;;;1.20;;
49101;SDS011;34913;47.520;19.186;2023-06-24T09:02:06;1.30;;;1.20;;
49101;SDS011;34913;47.520;19.186;2023-06-24T09:04:31;1.20;;;1.10;;
49101;SDS011;34913;47.520;19.186;2023-06-24T09:06:57;2.45;;;1.17;;
49101;SDS011;34913;47.520;19.186;2023-06-24T09:09:23;1.40;;;1.15;;
49101;SDS011;34913;47.520;19.186;2023-06-24T09:11:55;2.67;;;1.23;;
49101;SDS011;34913;47.520;19.186;2023-06-24T09:14:24;1.40;;;1.30;;
49101;SDS011;34913;47.520;19.186;2023-06-24T09:16:57;2.95;;;1.38;;
49101;SDS011;34913;47.520;19.186;2023-06-24T09:19:26;3.63;;;1.17;;
49101;SDS011;34913;47.520;19.186;2023-06-24T09:24:30;1.25;;;1.15;;
49101;SDS011;34913;47.520;19.186;2023-06-24T09:26:56;3.10;;;1.30;;
49101;SDS011;34913;47.520;19.186;2023-06-24T09:29:28;1.85;;;1.20;;
49101;SDS011;34913;47.520;19.186;2023-06-24T09:31:56;1.45;;;1.33;;
49101;SDS011;34913;47.520;19.186;2023-06-24T09:34:24;2.65;;;1.55;;
49101;SDS011;34913;47.520;19.186;2023-06-24T09:36:52;1.55;;;1.33;;
49101;SDS011;34913;47.520;19.186;2023-06-24T09:39:22;1.30;;;1.20;;
49101;SDS011;34913;47.520;19.186;2023-06-24T09:41:54;1.95;;;1.17;;
49101;SDS011;34913;47.520;19.186;2023-06-24T09:44:20;3.20;;;1.55;;
49101;SDS011;34913;47.520;19.186;2023-06-24T09:46:46;2.50;;;1.55;;
49101;SDS011;34913;47.520;19.186;2023-06-24T09:49:12;5.95;;;1.50;;
49101;SDS011;34913;47.520;19.186;2023-06-24T09:51:38;1.50;;;1.40;;
49101;SDS011;34913;47.520;19.186;2023-06-24T09:54:08;2.75;;;1.25;;
49101;SDS011;34913;47.520;19.186;2023-06-24T09:56:36;1.65;;;1.30;;
49101;SDS011;34913;47.520;19.186;2023-06-24T09:59:06;1.45;;;1.35;;
49101;SDS011;34913;47.520;19.186;2023-06-24T10:01:32;2.78;;;1.40;;
49101;SDS011;34913;47.520;19.186;2023-06-24T10:04:02;1.45;;;1.33;;
49101;SDS011;34913;47.520;19.186;2023-06-24T10:06:28;1.95;;;1.30;;
49101;SDS011;34913;47.520;19.186;2023-06-24T10:08:54;1.30;;;1.20;;
49101;SDS011;34913;47.520;19.186;2023-06-24T10:11:21;2.15;;;1.42;;
49101;SDS011;34913;47.520;19.186;2023-06-24T10:13:46;1.98;;;1.30;;
49101;SDS011;34913;47.520;19.186;2023-06-24T10:16:12;1.95;;;1.35;;
49101;SDS011;34913;47.520;19.186;2023-06-24T10:18:38;1.45;;;1.30;;
49101;SDS011;34913;47.520;19.186;2023-06-24T10:21:08;1.30;;;1.23;;
49101;SDS011;34913;47.520;19.186;2023-06-24T10:23:38;2.78;;;1.58;;
49101;SDS011;34913;47.520;19.186;2023-06-24T10:26:21;1.52;;;1.40;;
49101;SDS011;34913;47.520;19.186;2023-06-24T10:31:55;2.30;;;1.20;;
49101;SDS011;34913;47.520;19.186;2023-06-24T10:36:55;1.40;;;1.30;;
49101;SDS011;34913;47.520;19.186;2023-06-24T10:40:02;3.47;;;1.33;;
49101;SDS011;34913;47.520;19.186;2023-06-24T10:45:35;1.75;;;1.50;;
49101;SDS011;34913;47.520;19.186;2023-06-24T10:47:43;2.75;;;1.50;;
49101;SDS011;34913;47.520;19.186;2023-06-24T10:50:14;2.05;;;1.60;;
49101;SDS011;34913;47.520;19.186;2023-06-24T10:52:44;4.95;;;1.73;;
49101;SDS011;34913;47.520;19.186;2023-06-24T10:55:15;3.47;;;1.50;;
49101;SDS011;34913;47.520;19.186;2023-06-24T10:57:42;1.85;;;1.40;;
49101;SDS011;34913;47.520;19.186;2023-06-24T11:00:08;3.50;;;1.60;;
49101;SDS011;34913;47.520;19.186;2023-06-24T11:02:36;3.03;;;1.40;;
49101;SDS011;34913;47.520;19.186;2023-06-24T11:05:02;3.00;;;1.60;;
49101;SDS011;34913;47.520;19.186;2023-06-24T11:07:30;1.48;;;1.30;;
49101;SDS011;34913;47.520;19.186;2023-06-24T11:10:01;4.72;;;1.50;;
49101;SDS011;34913;47.520;19.186;2023-06-24T11:12:31;1.70;;;1.50;;
49101;SDS011;34913;47.520;19.186;2023-06-24T11:15:04;2.75;;;1.30;;
49101;SDS011;34913;47.520;19.186;2023-06-24T11:17:32;3.05;;;1.67;;
49101;SDS011;34913;47.520;19.186;2023-06-24T11:19:58;2.13;;;1.23;;
49101;SDS011;34913;47.520;19.186;2023-06-24T11:22:24;1.50;;;1.40;;
49101;SDS011;34913;47.520;19.186;2023-06-24T11:24:50;1.40;;;1.30;;
49101;SDS011;34913;47.520;19.186;2023-06-24T11:27:16;1.95;;;1.40;;
49101;SDS011;34913;47.520;19.186;2023-06-24T11:29:41;1.40;;;1.30;;
49101;SDS011;34913;47.520;19.186;2023-06-24T11:42:09;2.72;;;1.40;;
49101;SDS011;34913;47.520;19.186;2023-06-24T11:44:36;1.77;;;1.40;;
49101;SDS011;34913;47.520;19.186;2023-06-24T11:47:08;2.72;;;1.50;;
49101;SDS011;34913;47.520;19.186;2023-06-24T11:52:15;1.40;;;1.30;;
49101;SDS011;34913;47.520;19.186;2023-06-24T11:54:41;1.70;;;1.10;;
49101;SDS011;34913;47.520;19.186;2023-06-24T11:57:08;3.10;;;1.23;;
49101;SDS011;34913;47.520;19.186;2023-06-24T11:59:34;1.38;;;1.27;;
49101;SDS011;34913;47.520;19.186;2023-06-24T12:01:59;1.50;;;1.40;;
49101;SDS011;34913;47.520;19.186;2023-06-24T12:04:28;3.67;;;1.40;;
49101;SDS011;34913;47.520;19.186;2023-06-24T12:06:54;1.30;;;1.20;;
49101;SDS011;34913;47.520;19.186;2023-06-24T12:09:20;1.33;;;1.25;;
49101;SDS011;34913;47.520;19.186;2023-06-24T12:11:46;1.40;;;1.30;;
49101;SDS011;34913;47.520;19.186;2023-06-24T12:14:11;2.63;;;1.35;;
49101;SDS011;34913;47.520;19.186;2023-06-24T12:16:37;1.33;;;1.20;;
49101;SDS011;34913;47.520;19.186;2023-06-24T12:19:04;1.55;;;1.40;;
49101;SDS011;34913;47.520;19.186;2023-06-24T12:21:30;3.55;;;1.20;;
49101;SDS011;34913;47.520;19.186;2023-06-24T12:23:55;1.48;;;1.27;;
49101;SDS011;34913;47.520;19.186;2023-06-24T12:26:21;1.90;;;1.20;;
49101;SDS011;34913;47.520;19.186;2023-06-24T12:28:46;5.28;;;1.30;;
49101;SDS011;34913;47.520;19.186;2023-06-24T12:31:11;3.10;;;1.20;;
49101;SDS011;34913;47.520;19.186;2023-06-24T12:33:37;1.92;;;1.40;;
49101;SDS011;34913;47.520;19.186;2023-06-24T12:36:02;2.65;;;1.40;;
49101;SDS011;34913;47.520;19.186;2023-06-24T12:38:28;1.30;;;1.20;;
49101;SDS011;34913;47.520;19.186;2023-06-24T12:40:54;2.55;;;1.20;;
49101;SDS011;34913;47.520;19.186;2023-06-24T12:43:19;1.77;;;1.30;;
49101;SDS011;34913;47.520;19.186;2023-06-24T12:45:44;1.50;;;1.20;;
49101;SDS011;34913;47.520;19.186;2023-06-24T12:48:10;3.00;;;1.30;;
49101;SDS011;34913;47.520;19.186;2023-06-24T12:50:36;1.40;;;1.30;;
49101;SDS011;34913;47.520;19.186;2023-06-24T12:53:02;1.80;;;1.25;;
49101;SDS011;34913;47.520;19.186;2023-06-24T12:55:28;1.85;;;1.45;;
49101;SDS011;34913;47.520;19.186;2023-06-24T12:57:54;1.30;;;1.20;;
49101;SDS011;34913;47.520;19.186;2023-06-24T13:00:20;1.45;;;1.20;;
49101;SDS011;34913;47.520;19.186;2023-06-24T13:02:46;2.05;;;1.15;;
49101;SDS011;34913;47.520;19.186;2023-06-24T13:05:12;1.58;;;1.30;;
49101;SDS011;34913;47.520;19.186;2023-06-24T13:07:37;3.15;;;1.38;;
49101;SDS011;34913;47.520;19.186;2023-06-24T13:10:02;1.50;;;1.33;;
49101;SDS011;34913;47.520;19.186;2023-06-24T13:12:31;1.10;;;1.10;;
49101;SDS011;34913;47.520;19.186;2023-06-24T13:14:57;1.33;;;1.20;;
49101;SDS011;34913;47.520;19.186;2023-06-24T13:17:22;1.90;;;1.23;;
49101;SDS011;34913;47.520;19.186;2023-06-24T13:19:48;1.90;;;1.35;;
49101;SDS011;34913;47.520;19.186;2023-06-24T13:22:13;1.27;;;1.17;;
49101;SDS011;34913;47.520;19.186;2023-06-24T13:24:38;1.20;;;1.10;;
49101;SDS011;34913;47.520;19.186;2023-06-24T13:27:04;2.85;;;1.38;;
49101;SDS011;34913;47.520;19.186;2023-06-24T13:29:30;1.63;;;1.38;;
49101;SDS011;34913;47.520;19.186;2023-06-24T13:31:56;4.60;;;1.40;;
49101;SDS011;34913;47.520;19.186;2023-06-24T13:34:22;1.65;;;1.40;;
49101;SDS011;34913;47.520;19.186;2023-06-24T13:36:47;1.58;;;1.20;;
49101;SDS011;34913;47.520;19.186;2023-06-24T13:39:14;1.88;;;1.30;;
49101;SDS011;34913;47.520;19.186;2023-06-24T13:41:42;1.50;;;1.40;;
49101;SDS011;34913;47.520;19.186;2023-06-24T13:44:09;1.30;;;1.20;;
49101;SDS011;34913;47.520;19.186;2023-06-24T13:46:34;2.50;;;1.30;;
49101;SDS011;34913;47.520;19.186;2023-06-24T13:49:00;1.35;;;1.25;;
49101;SDS011;34913;47.520;19.186;2023-06-24T13:51:26;1.40;;;1.30;;
49101;SDS011;34913;47.520;19.186;2023-06-24T13:53:52;2.53;;;1.50;;
49101;SDS011;34913;47.520;19.186;2023-06-24T13:56:19;1.50;;;1.40;;
49101;SDS011;34913;47.520;19.186;2023-06-24T13:58:47;3.80;;;1.52;;
49101;SDS011;34913;47.520;19.186;2023-06-24T14:01:13;1.83;;;1.60;;
49101;SDS011;34913;47.520;19.186;2023-06-24T14:03:39;2.33;;;1.48;;
49101;SDS011;34913;47.520;19.186;2023-06-24T14:06:04;3.72;;;1.50;;
49101;SDS011;34913;47.520;19.186;2023-06-24T14:08:30;2.47;;;1.60;;
49101;SDS011;34913;47.520;19.186;2023-06-24T14:10:57;16.30;;;5.90;;
49101;SDS011;34913;47.520;19.186;2023-06-24T14:13:24;2.78;;;1.90;;
49101;SDS011;34913;47.520;19.186;2023-06-24T14:15:49;2.05;;;1.85;;
49101;SDS011;34913;47.520;19.186;2023-06-24T14:18:15;2.53;;;1.88;;
49101;SDS011;34913;47.520;19.186;2023-06-24T14:20:41;2.63;;;1.80;;
49101;SDS011;34913;47.520;19.186;2023-06-24T14:23:06;3.78;;;2.10;;
49101;SDS011;34913;47.520;19.186;2023-06-24T14:25:31;2.83;;;2.20;;
49101;SDS011;34913;47.520;19.186;2023-06-24T14:27:57;2.22;;;2.03;;
49101;SDS011;34913;47.520;19.186;2023-06-24T14:30:22;2.10;;;2.00;;
49101;SDS011;34913;47.520;19.186;2023-06-24T14:32:48;2.00;;;1.90;;
49101;SDS011;34913;47.520;19.186;2023-06-24T14:35:13;2.40;;;2.20;;
49101;SDS011;34913;47.520;19.186;2023-06-24T14:37:39;2.78;;;2.58;;
49101;SDS011;34913;47.520;19.186;2023-06-24T14:40:05;2.22;;;2.03;;
49101;SDS011;34913;47.520;19.186;2023-06-24T14:42:31;4.22;;;2.80;;
49101;SDS011;34913;47.520;19.186;2023-06-24T14:44:57;2.83;;;2.50;;
49101;SDS011;34913;47.520;19.186;2023-06-24T14:47:22;4.70;;;2.20;;
49101;SDS011;34913;47.520;19.186;2023-06-24T14:49:47;3.92;;;2.60;;
49101;SDS011;34913;47.520;19.186;2023-06-24T14:52:13;3.13;;;2.20;;
49101;SDS011;34913;47.520;19.186;2023-06-24T14:54:38;3.28;;;2.20;;
49101;SDS011;34913;47.520;19.186;2023-06-24T14:57:04;2.30;;;2.10;;
49101;SDS011;34913;47.520;19.186;2023-06-24T14:59:29;4.70;;;2.47;;
49101;SDS011;34913;47.520;19.186;2023-06-24T15:01:54;3.95;;;2.50;;
49101;SDS011;34913;47.520;19.186;2023-06-24T15:04:20;2.60;;;2.10;;
49101;SDS011;34913;47.520;19.186;2023-06-24T15:06:45;4.43;;;2.28;;
49101;SDS011;34913;47.520;19.186;2023-06-24T15:09:11;2.60;;;2.40;;
49101;SDS011;34913;47.520;19.186;2023-06-24T15:11:36;6.22;;;2.40;;